createdAt,value
2019-04-03T00:00:05.368Z,29
2019-04-03T00:15:04.932Z,29
2019-04-03T00:30:04.953Z,30
2019-04-03T00:45:04.233Z,29
2019-04-03T01:00:04.483Z,30
2019-04-03T01:15:04.986Z,29
2019-04-03T01:30:04.465Z,28
2019-04-03T01:45:04.708Z,28
2019-04-03T02:00:08.314Z,29
2019-04-03T02:15:04.894Z,29
2019-04-03T02:30:05.246Z,28
2019-04-03T02:45:04.605Z,29
2019-04-03T03:00:05.134Z,30
2019-04-03T03:15:05.140Z,29
2019-04-03T03:30:59.092Z,29
2019-04-03T03:45:04.976Z,30
2019-04-03T04:00:04.595Z,30
2019-04-03T04:15:05.309Z,29
2019-04-03T04:30:05.025Z,30
2019-04-03T04:45:04.339Z,32
2019-04-03T05:00:05.121Z,35
2019-04-03T05:15:04.665Z,33
2019-04-03T05:30:07.091Z,33
2019-04-03T05:45:05.098Z,34
2019-04-03T06:00:07.672Z,33
2019-04-03T06:15:04.489Z,33
2019-04-03T06:30:10.126Z,33
2019-04-03T06:45:04.386Z,33
2019-04-03T07:00:04.326Z,32
2019-04-03T07:15:05.124Z,31
2019-04-03T07:30:05.071Z,29
2019-04-03T07:45:04.846Z,29
2019-04-03T08:00:07.380Z,30
2019-04-03T08:15:05.090Z,30
2019-04-03T08:30:08.908Z,30
2019-04-03T08:45:07.602Z,30
2019-04-03T09:00:04.379Z,31
2019-04-03T09:15:05.333Z,31
2019-04-03T09:30:05.144Z,31
2019-04-03T09:45:05.417Z,31
2019-04-03T10:00:04.203Z,31
2019-04-03T10:15:04.484Z,30
2019-04-03T10:30:05.349Z,30
2019-04-03T10:45:05.097Z,30
2019-04-03T11:00:10.184Z,30
2019-04-03T11:15:16.979Z,29
2019-04-03T11:30:04.191Z,30
2019-04-03T11:45:05.689Z,31
2019-04-03T12:00:16.615Z,31
2019-04-03T12:15:04.493Z,31
2019-04-03T12:30:04.479Z,31
2019-04-03T12:45:09.531Z,31
2019-04-03T13:00:05.250Z,30
2019-04-03T13:15:06.993Z,31
2019-04-03T13:45:15.506Z,31
2019-04-03T14:00:23.722Z,29
2019-04-03T14:15:05.676Z,29
2019-04-03T14:30:04.779Z,29
2019-04-03T14:45:04.824Z,28
2019-04-03T15:00:31.622Z,29
2019-04-03T15:15:04.710Z,28
2019-04-03T15:30:04.662Z,28
2019-04-03T15:45:09.606Z,28
2019-04-03T16:00:04.672Z,28
2019-04-03T16:15:05.346Z,27
2019-04-03T16:30:07.543Z,30
2019-04-03T16:45:14.454Z,28
2019-04-03T17:00:10.360Z,28
2019-04-03T17:15:10.101Z,29
2019-04-03T17:30:24.196Z,29
2019-04-03T17:45:04.541Z,29
2019-04-03T18:00:04.872Z,29
2019-04-03T18:15:04.374Z,29
2019-04-03T18:30:04.842Z,29
2019-04-03T18:45:04.705Z,30
2019-04-03T19:00:05.061Z,29
2019-04-03T19:15:04.849Z,30
2019-04-03T19:30:08.063Z,29
2019-04-03T19:45:04.936Z,29
2019-04-03T20:00:04.274Z,29
2019-04-03T20:15:09.640Z,30
2019-04-03T20:30:04.974Z,29
2019-04-03T20:45:04.730Z,29
2019-04-03T21:00:05.412Z,29
2019-04-03T21:15:13.278Z,29
2019-04-03T21:30:05.024Z,30
2019-04-03T21:45:09.409Z,28
2019-04-03T22:00:06.212Z,29
2019-04-03T22:15:05.073Z,29
2019-04-03T22:30:05.193Z,29
2019-04-03T22:45:05.007Z,30
2019-04-03T23:00:04.413Z,29
2019-04-03T23:15:04.261Z,29
2019-04-03T23:30:04.856Z,28
2019-04-03T23:45:04.673Z,29
